createdAt,value
2019-02-12T00:09:00.429Z,100410.59
2019-02-12T00:19:01.345Z,100428.02
2019-02-12T00:29:01.988Z,100462.28
2019-02-12T00:39:04.570Z,100460.44
2019-02-12T00:49:05.299Z,100443.75
2019-02-12T00:59:06.156Z,100448.34
2019-02-12T01:09:07.168Z,100469.56
2019-02-12T01:19:07.917Z,100459.80
2019-02-12T01:29:08.696Z,100455.72
2019-02-12T01:39:10.414Z,100468.70
2019-02-12T08:21:13.146Z,100715.20
2019-02-12T08:31:33.272Z,100732.81
2019-02-12T08:41:55.391Z,100744.42
2019-02-12T08:52:15.832Z,100740.87
2019-02-12T09:02:44.852Z,100755.16
2019-02-12T09:13:01.283Z,100760.77
2019-02-12T09:23:22.656Z,100755.16
2019-02-12T09:33:48.651Z,100779.01
2019-02-12T09:44:15.162Z,100768.59
2019-02-12T09:54:42.605Z,100778.16
2019-02-12T10:04:56.625Z,100791.53
2019-02-12T10:15:15.885Z,100795.73
2019-02-12T10:25:19.708Z,100811.94
2019-02-12T10:35:20.767Z,100823.66
2019-02-12T10:45:21.467Z,100827.06
2019-02-12T10:55:22.757Z,100826.39
2019-02-12T11:05:26.863Z,100842.84
2019-02-12T11:15:27.842Z,100839.73
2019-02-12T11:25:28.764Z,100831.18
2019-02-12T11:35:29.675Z,100835.81
2019-02-12T11:45:30.665Z,100830.37
2019-02-12T11:55:31.341Z,100830.87
2019-02-12T12:05:32.055Z,100828.84
2019-02-12T12:15:32.746Z,100825.52
2019-02-12T12:25:33.449Z,100831.55
2019-02-12T12:35:34.384Z,100828.31
2019-02-12T12:45:35.434Z,100824.30
2019-02-12T12:55:36.421Z,100830.00
2019-02-12T13:05:37.238Z,100827.94
2019-02-12T13:15:38.100Z,100826.61
2019-02-12T13:25:39.031Z,100829.44
2019-02-12T13:35:39.952Z,100835.11
2019-02-12T13:45:46.553Z,100834.41
2019-02-12T13:55:46.057Z,100822.45
2019-02-12T14:05:46.783Z,100812.97
2019-02-12T14:15:47.506Z,100824.25
2019-02-12T14:25:48.203Z,100819.17
2019-02-12T14:35:48.963Z,100820.27
2019-02-12T14:45:49.973Z,100829.58
2019-02-12T14:55:51.017Z,100829.58
2019-02-12T15:05:51.945Z,100835.52
2019-02-12T15:15:53.145Z,100831.23
2019-02-12T15:25:54.010Z,100838.73
2019-02-12T15:35:54.815Z,100833.61
2019-02-12T15:45:55.735Z,100829.07
2019-02-12T15:55:56.749Z,100839.05
2019-02-12T16:05:58.785Z,100846.53
2019-02-12T16:15:59.471Z,100858.00
2019-02-12T16:26:00.153Z,100868.48
2019-02-12T16:36:10.059Z,100867.75
2019-02-12T16:46:18.702Z,100869.61
2019-02-12T17:06:37.358Z,100884.17
2019-02-12T17:16:38.262Z,100881.50
2019-02-12T17:26:44.814Z,100894.85
2019-02-12T17:36:45.574Z,100891.88
2019-02-12T17:46:49.485Z,100925.81
2019-02-12T17:56:52.256Z,100935.02
2019-02-12T18:06:55.052Z,100951.06
2019-02-12T18:16:56.768Z,100946.80
2019-02-12T18:26:57.526Z,100959.05
2019-02-12T18:37:00.061Z,100953.34
2019-02-12T18:47:01.016Z,100959.72
2019-02-12T18:57:01.862Z,100967.62
2019-02-12T19:07:02.804Z,100965.61
2019-02-12T19:17:03.485Z,100961.78
2019-02-12T19:27:05.339Z,100966.48
2019-02-12T19:37:06.046Z,100977.31
2019-02-12T19:47:07.832Z,100974.86
2019-02-12T19:57:08.609Z,100965.69
2019-02-12T20:07:09.398Z,100986.52
2019-02-12T20:17:10.176Z,100980.66
2019-02-12T20:27:10.857Z,100967.57
2019-02-12T20:37:11.538Z,100971.79
2019-02-12T20:47:12.289Z,100975.28
2019-02-12T20:57:14.908Z,100986.15
2019-02-12T21:07:15.902Z,100984.72
2019-02-12T21:17:16.587Z,100963.89
